createdAt,value
2022-10-23T00:00:44.594Z,15.15
2022-10-23T00:03:11.869Z,15.57
2022-10-23T00:05:41.351Z,14.27
2022-10-23T00:08:08.758Z,15.80
2022-10-23T00:10:36.072Z,16.42
2022-10-23T00:13:03.328Z,13.75
2022-10-23T00:15:30.755Z,16.08
2022-10-23T00:17:58.056Z,13.40
2022-10-23T00:20:25.542Z,14.50
2022-10-23T00:22:52.905Z,14.60
2022-10-23T00:25:20.380Z,13.07
2022-10-23T00:27:47.793Z,11.43
2022-10-23T00:30:15.149Z,14.13
2022-10-23T00:32:42.447Z,15.23
2022-10-23T00:35:10.063Z,14.20
2022-10-23T00:37:36.875Z,14.15
2022-10-23T00:40:05.064Z,14.18
2022-10-23T00:42:32.306Z,14.38
2022-10-23T00:45:16.549Z,16.02
2022-10-23T00:47:43.864Z,13.95
2022-10-23T00:50:11.284Z,14.50
2022-10-23T00:52:45.169Z,15.27
2022-10-23T00:55:12.718Z,18.20
2022-10-23T00:57:42.926Z,16.20
2022-10-23T01:00:12.870Z,14.30
2022-10-23T01:02:40.255Z,16.00
2022-10-23T01:05:08.963Z,14.75
2022-10-23T01:07:45.590Z,16.80
2022-10-23T01:10:36.826Z,16.23
2022-10-23T01:13:15.027Z,14.98
2022-10-23T01:15:42.522Z,15.52
2022-10-23T01:18:12.895Z,14.30
2022-10-23T01:23:41.795Z,14.38
2022-10-23T01:26:09.977Z,15.43
2022-10-23T01:28:44.713Z,17.48
2022-10-23T01:31:17.275Z,14.43
2022-10-23T01:33:58.042Z,16.70
2022-10-23T01:36:30.119Z,12.05
2022-10-23T01:39:10.956Z,15.07
2022-10-23T01:41:46.998Z,17.55
2022-10-23T01:44:24.858Z,14.25
2022-10-23T01:46:53.430Z,15.23
2022-10-23T01:49:21.533Z,16.23
2022-10-23T01:51:58.190Z,15.48
2022-10-23T01:54:31.999Z,15.82
2022-10-23T01:56:59.950Z,14.65
2022-10-23T01:59:36.795Z,14.00
2022-10-23T02:02:05.796Z,15.73
2022-10-23T02:04:45.338Z,14.55
2022-10-23T02:07:12.548Z,15.18
2022-10-23T02:09:40.152Z,17.45
2022-10-23T02:15:04.347Z,14.73
2022-10-23T02:17:44.080Z,14.23
2022-10-23T02:20:24.698Z,16.67
2022-10-23T02:22:56.647Z,14.10
2022-10-23T02:25:28.796Z,14.73
2022-10-23T02:27:57.556Z,17.25
2022-10-23T02:30:32.552Z,15.52
2022-10-23T02:33:10.146Z,15.05
2022-10-23T02:35:37.412Z,14.50
2022-10-23T02:38:30.166Z,17.60
2022-10-23T02:41:01.869Z,15.23
2022-10-23T02:43:37.559Z,17.15
2022-10-23T02:46:04.781Z,13.10
2022-10-23T02:48:42.346Z,18.33
2022-10-23T02:51:30.689Z,17.33
2022-10-23T02:54:09.385Z,18.92
2022-10-23T02:56:38.798Z,16.52
2022-10-23T02:59:16.949Z,15.63
2022-10-23T03:01:56.604Z,14.98
2022-10-23T03:04:26.346Z,15.88
2022-10-23T03:06:53.728Z,13.98
2022-10-23T03:09:21.030Z,14.68
2022-10-23T03:11:48.284Z,13.80
2022-10-23T03:14:15.576Z,16.85
2022-10-23T03:16:42.856Z,17.05
2022-10-23T03:21:37.576Z,14.60
2022-10-23T03:24:08.354Z,15.00
2022-10-23T03:26:44.726Z,15.93
2022-10-23T03:29:12.143Z,13.60
2022-10-23T03:31:45.074Z,13.98
2022-10-23T03:34:13.694Z,17.05
2022-10-23T03:36:41.498Z,14.73
2022-10-23T03:39:10.082Z,16.13
2022-10-23T03:41:37.301Z,13.15
2022-10-23T03:46:37.229Z,13.43
2022-10-23T03:49:05.674Z,14.65
2022-10-23T03:51:33.237Z,14.88
2022-10-23T03:54:00.487Z,14.30
2022-10-23T03:56:27.870Z,12.60
2022-10-23T03:58:55.061Z,13.98
2022-10-23T04:01:24.975Z,14.05
2022-10-23T04:03:52.355Z,13.70
2022-10-23T04:06:19.767Z,12.32
2022-10-23T04:08:47.816Z,12.88
2022-10-23T04:11:17.710Z,16.23
2022-10-23T04:13:46.424Z,14.90
2022-10-23T04:16:13.791Z,16.08
2022-10-23T04:18:41.597Z,14.93
2022-10-23T04:23:37.070Z,12.40
2022-10-23T04:26:05.841Z,13.90
2022-10-23T04:28:33.099Z,12.85
2022-10-23T04:31:00.353Z,14.50
2022-10-23T04:33:27.885Z,13.18
2022-10-23T04:35:55.088Z,16.38
2022-10-23T04:38:22.317Z,13.77
2022-10-23T04:40:50.526Z,14.68
2022-10-23T04:43:21.452Z,12.57
2022-10-23T04:45:49.551Z,12.70
2022-10-23T04:48:16.878Z,12.05
2022-10-23T04:51:16.388Z,13.30
2022-10-23T04:53:54.590Z,13.68
2022-10-23T04:56:28.736Z,12.93
2022-10-23T04:59:02.788Z,13.05
2022-10-23T05:01:31.144Z,12.15
2022-10-23T05:03:59.187Z,12.88
2022-10-23T05:06:26.523Z,16.65
2022-10-23T05:09:18.332Z,12.10
2022-10-23T05:12:11.997Z,12.40
2022-10-23T05:14:39.218Z,12.48
2022-10-23T05:17:09.826Z,15.27
2022-10-23T05:19:44.168Z,11.63
2022-10-23T05:22:11.868Z,13.40
2022-10-23T05:24:50.586Z,12.38
2022-10-23T05:27:21.672Z,12.35
2022-10-23T05:29:49.137Z,12.52
2022-10-23T05:34:51.610Z,11.13
2022-10-23T05:37:18.891Z,12.00
2022-10-23T05:39:46.130Z,10.77
2022-10-23T05:42:15.237Z,15.20
2022-10-23T05:44:42.791Z,12.65
2022-10-23T05:47:22.108Z,14.98
2022-10-23T05:50:08.152Z,11.55
2022-10-23T05:52:49.150Z,13.88
2022-10-23T05:55:49.429Z,11.00
2022-10-23T05:58:35.241Z,11.05
2022-10-23T06:01:14.419Z,10.63
2022-10-23T06:03:56.098Z,14.48
2022-10-23T06:06:30.381Z,13.10
2022-10-23T06:08:58.192Z,12.93
2022-10-23T06:11:25.508Z,13.13
2022-10-23T06:14:01.031Z,13.85
2022-10-23T06:16:28.594Z,11.35
2022-10-23T06:18:57.417Z,12.48
2022-10-23T06:21:24.811Z,13.00
2022-10-23T06:23:53.150Z,12.50
2022-10-23T06:26:43.820Z,12.63
2022-10-23T06:29:16.292Z,9.18
2022-10-23T06:31:44.293Z,12.48
2022-10-23T06:34:12.738Z,11.05
2022-10-23T06:36:40.240Z,14.20
2022-10-23T06:39:45.837Z,11.52
2022-10-23T06:42:15.784Z,14.23
2022-10-23T06:45:06.592Z,13.20
2022-10-23T06:47:53.653Z,12.15
2022-10-23T06:50:26.896Z,13.30
2022-10-23T06:52:54.842Z,13.55
2022-10-23T06:55:23.125Z,11.10
2022-10-23T06:57:51.432Z,11.77
2022-10-23T07:00:18.695Z,12.18
2022-10-23T07:02:50.514Z,12.18
2022-10-23T07:05:18.552Z,15.43
2022-10-23T07:07:45.955Z,14.52
2022-10-23T07:10:18.372Z,14.75
2022-10-23T07:12:48.932Z,12.82
2022-10-23T07:15:42.108Z,12.90
2022-10-23T07:18:16.531Z,14.65
2022-10-23T07:21:03.808Z,12.13
2022-10-23T07:23:32.259Z,13.18
2022-10-23T07:26:10.705Z,11.30
2022-10-23T07:28:38.823Z,14.00
2022-10-23T07:31:05.750Z,12.57
2022-10-23T07:33:55.927Z,13.43
2022-10-23T07:36:23.196Z,15.15
2022-10-23T07:38:51.297Z,11.90
2022-10-23T07:41:18.635Z,11.10
2022-10-23T07:43:45.971Z,16.70
2022-10-23T07:46:13.226Z,15.13
2022-10-23T07:48:40.711Z,13.38
2022-10-23T07:51:14.440Z,13.98
2022-10-23T07:53:45.266Z,14.55
2022-10-23T07:56:29.826Z,12.82
2022-10-23T07:59:13.287Z,14.68
2022-10-23T08:01:42.639Z,14.18
2022-10-23T08:06:44.958Z,15.15
2022-10-23T08:09:12.558Z,14.88
2022-10-23T08:11:42.555Z,13.80
2022-10-23T08:14:12.176Z,13.13
2022-10-23T08:16:43.081Z,12.80
2022-10-23T08:19:19.293Z,11.27
2022-10-23T08:21:48.303Z,11.02
2022-10-23T08:24:15.811Z,13.25
2022-10-23T08:26:45.909Z,12.00
2022-10-23T08:29:14.357Z,13.40
2022-10-23T08:31:42.284Z,11.35
2022-10-23T08:34:15.644Z,11.20
2022-10-23T08:36:45.529Z,13.65
2022-10-23T08:39:13.686Z,12.95
2022-10-23T08:41:52.692Z,13.05
2022-10-23T08:44:39.189Z,11.93
2022-10-23T08:47:18.534Z,13.23
2022-10-23T08:50:20.474Z,13.20
2022-10-23T08:52:52.402Z,13.30
2022-10-23T08:55:23.966Z,14.55
2022-10-23T08:58:23.388Z,12.15
2022-10-23T09:00:50.903Z,12.77
2022-10-23T09:03:18.300Z,14.38
2022-10-23T09:06:09.473Z,12.40
2022-10-23T09:08:44.483Z,13.80
2022-10-23T09:11:17.849Z,11.55
2022-10-23T09:14:34.967Z,13.30
2022-10-23T09:17:28.393Z,13.40
2022-10-23T09:20:15.885Z,12.70
2022-10-23T09:22:43.827Z,12.38
2022-10-23T09:25:18.998Z,11.73
2022-10-23T09:27:53.231Z,12.50
2022-10-23T09:30:41.497Z,10.13
2022-10-23T09:33:15.884Z,10.88
2022-10-23T09:35:56.333Z,10.90
2022-10-23T09:38:32.000Z,13.75
2022-10-23T09:41:18.156Z,15.15
2022-10-23T09:43:45.511Z,12.18
2022-10-23T09:46:12.960Z,12.60
2022-10-23T09:48:42.346Z,12.70
2022-10-23T09:51:21.837Z,14.00
2022-10-23T09:53:52.401Z,12.68
2022-10-23T09:56:40.308Z,11.45
2022-10-23T09:59:27.937Z,10.32
2022-10-23T10:01:58.427Z,12.00
2022-10-23T10:04:49.051Z,12.07
2022-10-23T10:07:26.604Z,11.63
2022-10-23T10:09:55.558Z,11.43
2022-10-23T10:12:46.475Z,10.02
2022-10-23T10:15:13.638Z,10.93
2022-10-23T10:17:41.022Z,10.82
2022-10-23T10:20:26.865Z,12.23
2022-10-23T10:22:56.842Z,10.02
2022-10-23T10:25:24.129Z,9.60
2022-10-23T10:27:51.347Z,10.32
2022-10-23T10:30:18.489Z,9.32
2022-10-23T10:33:12.874Z,12.00
2022-10-23T10:35:52.261Z,10.23
2022-10-23T10:38:30.782Z,13.27
2022-10-23T10:40:57.995Z,12.50
2022-10-23T10:43:25.185Z,8.85
2022-10-23T10:46:00.830Z,10.68
2022-10-23T10:51:59.910Z,12.45
2022-10-23T10:54:32.325Z,9.45
2022-10-23T10:57:02.636Z,9.98
2022-10-23T10:59:35.533Z,11.00
2022-10-23T11:02:13.300Z,10.80
2022-10-23T11:04:42.939Z,11.45
2022-10-23T11:07:15.044Z,11.93
2022-10-23T11:09:43.335Z,10.77
2022-10-23T11:12:23.975Z,11.07
2022-10-23T11:14:51.684Z,13.43
2022-10-23T11:20:02.401Z,15.05
2022-10-23T11:22:50.604Z,8.32
2022-10-23T11:25:39.469Z,9.20
2022-10-23T11:28:10.385Z,10.85
2022-10-23T11:31:01.653Z,8.75
2022-10-23T11:34:07.451Z,9.38
2022-10-23T11:36:45.109Z,11.70
2022-10-23T11:39:24.257Z,12.45
2022-10-23T11:41:56.605Z,11.30
2022-10-23T11:44:41.627Z,8.85
2022-10-23T11:47:27.800Z,12.27
2022-10-23T11:50:10.216Z,11.05
2022-10-23T11:52:45.652Z,10.27
2022-10-23T11:55:17.897Z,9.55
2022-10-23T11:58:19.594Z,9.35
2022-10-23T12:00:52.319Z,11.23
2022-10-23T12:03:21.507Z,8.50
2022-10-23T12:05:57.154Z,9.10
2022-10-23T12:08:29.517Z,11.40
2022-10-23T12:10:56.851Z,10.77
2022-10-23T12:13:47.030Z,10.15
2022-10-23T12:16:14.617Z,8.80
2022-10-23T12:18:51.924Z,7.55
2022-10-23T12:21:28.380Z,9.70
2022-10-23T12:23:55.585Z,10.48
2022-10-23T12:27:01.662Z,10.98
2022-10-23T12:29:55.430Z,11.75
2022-10-23T12:32:30.889Z,9.30
2022-10-23T12:35:29.916Z,8.75
2022-10-23T12:38:14.771Z,10.43
2022-10-23T12:40:46.242Z,8.93
2022-10-23T12:43:22.760Z,11.13
2022-10-23T12:45:50.418Z,9.07
2022-10-23T12:48:21.868Z,8.98
2022-10-23T12:50:50.905Z,10.60
2022-10-23T12:53:19.145Z,9.63
2022-10-23T12:58:35.291Z,8.75
2022-10-23T13:01:07.082Z,9.20
2022-10-23T13:03:35.229Z,9.65
2022-10-23T13:06:03.530Z,10.52
2022-10-23T13:08:43.576Z,10.82
2022-10-23T13:11:26.754Z,9.10
2022-10-23T13:13:56.607Z,9.02
2022-10-23T13:16:24.986Z,7.43
2022-10-23T13:18:53.584Z,8.57
2022-10-23T13:21:22.809Z,7.97
2022-10-23T13:23:50.437Z,9.27
2022-10-23T13:26:29.922Z,9.15
2022-10-23T13:28:57.529Z,10.68
2022-10-23T13:31:26.680Z,8.82
2022-10-23T13:34:00.390Z,8.98
2022-10-23T13:36:30.253Z,8.18
2022-10-23T13:39:01.680Z,9.57
2022-10-23T13:41:30.717Z,7.82
2022-10-23T13:46:28.501Z,8.13
2022-10-23T13:48:55.389Z,9.70
2022-10-23T13:51:30.148Z,7.80
2022-10-23T13:53:59.068Z,8.05
2022-10-23T13:56:27.261Z,7.10
2022-10-23T13:58:54.885Z,7.15
2022-10-23T14:01:28.577Z,10.02
2022-10-23T14:03:57.310Z,9.88
2022-10-23T14:06:24.923Z,6.82
2022-10-23T14:08:52.518Z,9.07
2022-10-23T14:11:20.418Z,8.60
2022-10-23T14:13:48.598Z,8.77
2022-10-23T14:16:17.704Z,8.88
2022-10-23T14:21:13.972Z,8.77
2022-10-23T14:23:41.203Z,9.10
2022-10-23T14:26:13.983Z,8.32
2022-10-23T14:28:41.155Z,8.98
2022-10-23T14:31:10.901Z,11.10
2022-10-23T14:33:38.151Z,9.40
2022-10-23T14:36:05.733Z,8.68
2022-10-23T14:38:33.156Z,8.48
2022-10-23T14:41:00.680Z,9.57
2022-10-23T14:43:27.934Z,7.68
2022-10-23T14:45:55.140Z,9.45
2022-10-23T14:48:22.378Z,9.13
2022-10-23T14:50:49.903Z,8.82
2022-10-23T14:53:17.654Z,9.32
2022-10-23T14:55:44.821Z,8.70
2022-10-23T14:58:12.102Z,6.82
2022-10-23T15:00:39.528Z,11.10
2022-10-23T15:03:06.839Z,7.85
2022-10-23T15:05:34.099Z,9.77
2022-10-23T15:08:01.673Z,7.93
2022-10-23T15:10:29.048Z,8.85
2022-10-23T15:12:56.311Z,9.68
2022-10-23T15:15:23.887Z,8.15
2022-10-23T15:17:51.112Z,8.00
2022-10-23T15:20:18.460Z,7.20
2022-10-23T15:22:45.957Z,9.07
2022-10-23T15:25:17.729Z,8.07
2022-10-23T15:27:45.655Z,10.35
2022-10-23T15:30:13.215Z,8.63
2022-10-23T15:32:40.977Z,11.10
2022-10-23T15:35:08.174Z,16.13
2022-10-23T15:37:35.371Z,10.15
2022-10-23T15:40:02.782Z,8.55
2022-10-23T15:42:30.075Z,9.00
2022-10-23T15:44:57.245Z,9.23
2022-10-23T15:47:24.453Z,8.15
2022-10-23T15:49:51.673Z,8.02
2022-10-23T15:52:18.926Z,7.50
2022-10-23T15:54:46.142Z,8.23
2022-10-23T15:57:13.445Z,10.80
2022-10-23T15:59:40.781Z,7.95
2022-10-23T16:02:08.928Z,10.73
2022-10-23T16:04:36.284Z,9.85
2022-10-23T16:07:03.550Z,9.50
2022-10-23T16:09:30.834Z,11.50
2022-10-23T16:11:58.026Z,10.73
2022-10-23T16:14:25.272Z,10.18
2022-10-23T16:16:52.494Z,9.18
2022-10-23T16:19:19.735Z,10.13
2022-10-23T16:21:46.989Z,11.65
2022-10-23T16:24:14.449Z,8.90
2022-10-23T16:26:41.670Z,10.70
2022-10-23T16:29:09.836Z,10.10
2022-10-23T16:31:37.226Z,8.98
2022-10-23T16:34:05.392Z,9.25
2022-10-23T16:36:32.865Z,9.82
2022-10-23T16:39:17.071Z,12.32
2022-10-23T16:42:03.046Z,8.98
2022-10-23T16:45:02.379Z,12.90
2022-10-23T16:47:31.318Z,8.52
2022-10-23T16:49:58.560Z,14.43
2022-10-23T16:52:27.052Z,9.35
2022-10-23T16:54:54.565Z,9.45
2022-10-23T16:57:21.819Z,9.75
2022-10-23T16:59:49.134Z,13.52
2022-10-23T17:02:16.520Z,9.50
2022-10-23T17:04:43.936Z,9.70
2022-10-23T17:07:13.088Z,7.72
2022-10-23T17:09:40.885Z,9.20
2022-10-23T17:12:07.817Z,7.70
2022-10-23T17:14:35.132Z,9.55
2022-10-23T17:17:03.558Z,8.45
2022-10-23T17:19:47.022Z,11.90
2022-10-23T17:22:16.403Z,7.93
2022-10-23T17:24:46.181Z,7.45
2022-10-23T17:27:16.163Z,12.38
2022-10-23T17:29:43.425Z,7.80
2022-10-23T17:32:10.714Z,11.93
2022-10-23T17:34:38.072Z,9.20
2022-10-23T17:37:04.914Z,8.93
2022-10-23T17:39:32.124Z,9.82
2022-10-23T17:41:59.706Z,8.52
2022-10-23T17:44:27.024Z,9.52
2022-10-23T17:46:55.457Z,11.65
2022-10-23T17:49:23.811Z,12.55
2022-10-23T17:51:56.067Z,9.50
2022-10-23T17:54:24.392Z,9.48
2022-10-23T17:56:51.687Z,9.75
2022-10-23T17:59:19.773Z,9.82
2022-10-23T18:01:48.321Z,11.75
2022-10-23T18:04:17.391Z,10.02
2022-10-23T18:06:46.052Z,10.40
2022-10-23T18:09:13.246Z,8.63
2022-10-23T18:11:45.340Z,7.93
2022-10-23T18:14:14.366Z,9.77
2022-10-23T18:16:42.188Z,9.15
2022-10-23T18:19:10.680Z,8.55
2022-10-23T18:21:38.035Z,8.77
2022-10-23T18:24:05.588Z,9.60
2022-10-23T18:26:37.661Z,9.80
2022-10-23T18:29:07.413Z,8.18
2022-10-23T18:31:37.207Z,9.93
2022-10-23T18:34:13.506Z,14.43
2022-10-23T18:36:41.234Z,12.20
2022-10-23T18:39:12.082Z,9.93
2022-10-23T18:41:41.824Z,9.68
2022-10-23T18:44:10.430Z,10.93
2022-10-23T18:46:37.762Z,10.55
2022-10-23T18:49:05.173Z,9.55
2022-10-23T18:51:33.852Z,10.80
2022-10-23T18:54:01.825Z,10.73
2022-10-23T18:56:29.260Z,10.23
2022-10-23T18:58:59.188Z,9.57
2022-10-23T19:01:27.509Z,11.85
2022-10-23T19:06:23.873Z,10.65
2022-10-23T19:08:51.334Z,9.70
2022-10-23T19:11:21.248Z,9.68
2022-10-23T19:13:48.722Z,8.43
2022-10-23T19:16:24.422Z,10.88
2022-10-23T19:19:18.565Z,9.30
2022-10-23T19:21:46.266Z,10.32
2022-10-23T19:24:15.265Z,10.77
2022-10-23T19:26:42.778Z,14.38
2022-10-23T19:29:13.106Z,11.68
2022-10-23T19:31:44.661Z,13.07
2022-10-23T19:34:11.909Z,10.73
2022-10-23T19:36:39.174Z,11.57
2022-10-23T19:39:06.401Z,8.05
2022-10-23T19:41:33.656Z,9.70
2022-10-23T19:44:00.837Z,8.95
2022-10-23T19:46:28.051Z,9.57
2022-10-23T19:48:55.307Z,8.43
2022-10-23T19:51:22.531Z,11.43
2022-10-23T19:53:54.616Z,9.00
2022-10-23T19:56:21.832Z,8.73
2022-10-23T19:58:50.283Z,9.45
2022-10-23T20:01:19.810Z,10.65
2022-10-23T20:03:50.172Z,10.50
2022-10-23T20:06:20.827Z,9.55
2022-10-23T20:08:48.122Z,8.80
2022-10-23T20:11:20.266Z,7.82
2022-10-23T20:13:48.784Z,10.65
2022-10-23T20:16:27.017Z,11.48
2022-10-23T20:18:54.256Z,8.00
2022-10-23T20:21:21.671Z,9.38
2022-10-23T20:23:49.313Z,7.80
2022-10-23T20:26:17.690Z,8.32
2022-10-23T20:28:51.113Z,8.60
2022-10-23T20:31:19.720Z,11.27
2022-10-23T20:33:46.960Z,8.45
2022-10-23T20:36:32.015Z,8.63
2022-10-23T20:39:02.203Z,6.75
2022-10-23T20:41:32.422Z,6.43
2022-10-23T20:44:00.108Z,6.63
2022-10-23T20:46:27.787Z,9.38
2022-10-23T20:48:55.052Z,7.10
2022-10-23T20:51:23.798Z,6.25
2022-10-23T20:53:53.040Z,5.57
2022-10-23T20:56:49.362Z,7.72
2022-10-23T20:59:18.579Z,6.05
2022-10-23T21:01:51.435Z,6.88
2022-10-23T21:04:21.632Z,5.28
2022-10-23T21:07:08.855Z,8.02
2022-10-23T21:09:37.962Z,5.75
2022-10-23T21:12:06.638Z,5.97
2022-10-23T21:14:34.325Z,4.60
2022-10-23T21:17:01.142Z,9.40
2022-10-23T21:19:28.376Z,3.97
2022-10-23T21:21:55.756Z,8.07
2022-10-23T21:24:24.009Z,6.82
2022-10-23T21:26:51.203Z,3.35
2022-10-23T21:29:19.719Z,3.45
2022-10-23T21:31:54.609Z,6.20
2022-10-23T21:34:22.146Z,5.45
2022-10-23T21:37:11.372Z,7.18
2022-10-23T21:39:36.722Z,4.10
2022-10-23T21:42:03.988Z,3.97
2022-10-23T21:44:31.235Z,7.55
2022-10-23T21:46:58.475Z,7.18
2022-10-23T21:49:25.697Z,5.28
2022-10-23T21:51:54.838Z,6.03
2022-10-23T21:54:22.391Z,3.90
2022-10-23T21:56:51.703Z,6.65
2022-10-23T21:59:21.993Z,4.90
2022-10-23T22:01:49.688Z,4.60
2022-10-23T22:04:18.661Z,4.45
2022-10-23T22:06:47.102Z,5.85
2022-10-23T22:09:16.624Z,6.20
2022-10-23T22:11:43.913Z,4.95
2022-10-23T22:14:11.293Z,4.60
2022-10-23T22:16:38.494Z,10.57
2022-10-23T22:19:05.809Z,5.82
2022-10-23T22:21:33.069Z,5.50
2022-10-23T22:24:00.913Z,5.88
2022-10-23T22:26:34.305Z,5.43
2022-10-23T22:29:10.761Z,4.80
2022-10-23T22:31:39.301Z,4.60
2022-10-23T22:34:18.955Z,4.00
2022-10-23T22:36:56.486Z,7.53
2022-10-23T22:39:24.032Z,4.20
2022-10-23T22:41:51.291Z,5.28
2022-10-23T22:44:18.724Z,5.03
2022-10-23T22:46:46.517Z,8.60
2022-10-23T22:49:13.752Z,5.93
2022-10-23T22:51:40.976Z,6.15
2022-10-23T22:54:08.333Z,6.53
2022-10-23T22:56:35.706Z,7.70
2022-10-23T22:59:03.752Z,7.38
2022-10-23T23:01:36.165Z,5.70
2022-10-23T23:04:13.949Z,6.80
2022-10-23T23:06:50.305Z,6.53
2022-10-23T23:09:18.722Z,7.75
2022-10-23T23:11:51.656Z,4.68
2022-10-23T23:14:23.573Z,6.38
2022-10-23T23:16:52.637Z,7.80
2022-10-23T23:19:19.989Z,7.32
2022-10-23T23:21:47.316Z,4.90
2022-10-23T23:24:14.782Z,6.85
2022-10-23T23:26:42.029Z,6.55
2022-10-23T23:29:09.243Z,8.65
2022-10-23T23:31:36.462Z,7.55
2022-10-23T23:34:03.689Z,7.15
2022-10-23T23:36:31.033Z,6.57
2022-10-23T23:38:58.567Z,5.90
2022-10-23T23:41:26.872Z,6.70
2022-10-23T23:43:55.778Z,11.38
2022-10-23T23:46:22.995Z,7.97
2022-10-23T23:48:50.420Z,7.53
2022-10-23T23:51:20.693Z,12.68
2022-10-23T23:53:49.032Z,6.40
2022-10-23T23:56:16.723Z,8.20
2022-10-23T23:58:44.109Z,10.02
